createdAt,value
2023-03-22T00:00:14.091Z,6.95
2023-03-22T00:02:41.773Z,7.93
2023-03-22T00:05:09.632Z,7.10
2023-03-22T00:07:37.697Z,6.15
2023-03-22T00:10:05.832Z,7.20
2023-03-22T00:12:33.084Z,8.23
2023-03-22T00:15:01.193Z,10.02
2023-03-22T00:17:28.583Z,9.23
2023-03-22T00:19:55.952Z,6.35
2023-03-22T00:22:23.337Z,8.10
2023-03-22T00:24:50.749Z,9.73
2023-03-22T00:27:18.088Z,6.88
2023-03-22T00:29:45.784Z,9.70
2023-03-22T00:32:13.028Z,13.88
2023-03-22T00:34:40.400Z,7.55
2023-03-22T00:37:08.041Z,6.65
2023-03-22T00:39:35.383Z,9.18
2023-03-22T00:42:04.248Z,10.02
2023-03-22T00:44:31.579Z,9.65
2023-03-22T00:46:58.802Z,8.77
2023-03-22T00:49:27.211Z,9.38
2023-03-22T00:51:54.887Z,9.57
2023-03-22T00:54:22.221Z,6.65
2023-03-22T00:56:49.986Z,8.57
2023-03-22T00:59:17.838Z,10.23
2023-03-22T01:01:45.192Z,9.52
2023-03-22T01:04:18.374Z,9.38
2023-03-22T01:06:47.206Z,7.82
2023-03-22T01:09:15.124Z,8.88
2023-03-22T01:11:43.667Z,8.00
2023-03-22T01:14:13.917Z,12.60
2023-03-22T01:16:41.459Z,11.07
2023-03-22T01:19:09.283Z,10.38
2023-03-22T01:21:36.896Z,10.30
2023-03-22T01:24:04.403Z,8.68
2023-03-22T01:26:31.699Z,11.68
2023-03-22T01:28:58.983Z,7.07
2023-03-22T01:31:26.299Z,7.15
2023-03-22T01:33:54.425Z,5.82
2023-03-22T01:36:23.340Z,8.82
2023-03-22T01:38:50.804Z,6.85
2023-03-22T01:41:18.706Z,9.60
2023-03-22T01:43:46.812Z,7.88
2023-03-22T01:46:14.180Z,7.80
2023-03-22T01:48:45.951Z,6.10
2023-03-22T01:51:28.161Z,7.22
2023-03-22T01:54:23.985Z,8.65
2023-03-22T01:56:52.215Z,5.68
2023-03-22T01:59:30.421Z,9.98
2023-03-22T02:02:24.877Z,6.93
2023-03-22T02:05:00.102Z,6.30
2023-03-22T02:07:31.748Z,6.60
2023-03-22T02:10:00.140Z,7.45
2023-03-22T02:12:59.001Z,5.00
2023-03-22T02:15:51.890Z,6.07
2023-03-22T02:18:46.946Z,7.85
2023-03-22T02:21:17.181Z,9.70
2023-03-22T02:23:47.807Z,6.45
2023-03-22T02:26:15.428Z,6.82
2023-03-22T02:28:46.800Z,8.93
2023-03-22T02:31:33.070Z,7.88
2023-03-22T02:34:29.784Z,9.60
2023-03-22T02:37:12.671Z,10.48
2023-03-22T02:40:14.372Z,8.38
2023-03-22T02:45:15.511Z,9.02
2023-03-22T02:47:43.436Z,10.25
2023-03-22T02:50:13.804Z,8.80
2023-03-22T02:52:51.483Z,10.90
2023-03-22T02:55:31.544Z,10.05
2023-03-22T02:58:01.395Z,11.32
2023-03-22T03:00:29.548Z,8.77
2023-03-22T03:03:00.099Z,11.52
2023-03-22T03:05:30.849Z,11.27
2023-03-22T03:08:00.158Z,12.25
2023-03-22T03:10:29.178Z,12.75
2023-03-22T03:12:56.466Z,11.52
2023-03-22T03:15:23.804Z,10.25
2023-03-22T03:18:06.595Z,14.02
2023-03-22T03:20:53.028Z,12.75
2023-03-22T03:23:39.190Z,13.52
2023-03-22T03:26:15.835Z,16.90
2023-03-22T03:28:54.786Z,12.27
2023-03-22T03:31:35.627Z,13.70
2023-03-22T03:34:32.295Z,14.07
2023-03-22T03:37:02.387Z,15.32
2023-03-22T03:39:31.552Z,13.32
2023-03-22T03:42:00.513Z,17.20
2023-03-22T03:44:28.344Z,17.88
2023-03-22T03:46:56.263Z,14.52
2023-03-22T03:49:24.004Z,14.93
2023-03-22T03:51:53.008Z,15.38
2023-03-22T03:54:20.661Z,16.77
2023-03-22T03:56:48.630Z,17.38
2023-03-22T03:59:17.057Z,15.48
2023-03-22T04:01:50.531Z,15.02
2023-03-22T04:04:27.717Z,17.00
2023-03-22T04:07:06.179Z,16.38
2023-03-22T04:09:37.614Z,15.25
2023-03-22T04:12:15.278Z,18.67
2023-03-22T04:14:46.722Z,16.10
2023-03-22T04:17:21.826Z,16.65
2023-03-22T04:19:49.403Z,16.33
2023-03-22T04:22:18.469Z,15.75
2023-03-22T04:24:50.117Z,15.80
2023-03-22T04:27:20.158Z,15.82
2023-03-22T04:29:59.356Z,16.02
2023-03-22T04:32:55.487Z,17.25
2023-03-22T04:35:31.550Z,16.73
2023-03-22T04:38:01.290Z,14.20
2023-03-22T04:40:35.215Z,14.85
2023-03-22T04:43:18.988Z,15.48
2023-03-22T04:45:54.924Z,17.60
2023-03-22T04:48:28.161Z,14.07
2023-03-22T04:50:57.046Z,19.10
2023-03-22T04:53:27.545Z,13.20
2023-03-22T04:55:59.331Z,14.80
2023-03-22T04:58:28.621Z,14.50
2023-03-22T05:00:55.880Z,14.00
2023-03-22T05:03:23.809Z,14.38
2023-03-22T05:05:56.680Z,15.45
2023-03-22T05:08:29.342Z,14.90
2023-03-22T05:10:58.548Z,18.17
2023-03-22T05:15:53.519Z,14.77
2023-03-22T05:18:27.732Z,15.82
2023-03-22T05:20:57.478Z,15.02
2023-03-22T05:23:25.015Z,13.30
2023-03-22T05:25:58.291Z,13.70
2023-03-22T05:28:27.263Z,11.98
2023-03-22T05:31:05.559Z,14.68
2023-03-22T05:33:42.309Z,13.77
2023-03-22T05:36:11.951Z,12.40
2023-03-22T05:38:51.303Z,17.15
2023-03-22T05:41:19.634Z,13.35
2023-03-22T05:43:47.319Z,14.48
2023-03-22T05:46:15.546Z,13.43
2023-03-22T05:49:01.334Z,18.40
2023-03-22T05:51:29.805Z,14.70
2023-03-22T05:53:57.814Z,10.95
2023-03-22T05:56:31.636Z,12.40
2023-03-22T05:59:07.030Z,12.75
2023-03-22T06:01:35.238Z,13.07
2023-03-22T06:04:28.768Z,13.20
2023-03-22T06:06:58.900Z,13.88
2023-03-22T06:09:44.998Z,15.35
2023-03-22T06:12:17.212Z,11.68
2023-03-22T06:14:49.240Z,13.07
2023-03-22T06:17:37.869Z,11.27
2023-03-22T06:20:11.870Z,12.70
2023-03-22T06:22:41.892Z,12.10
2023-03-22T06:25:10.333Z,12.23
2023-03-22T06:27:42.235Z,12.18
2023-03-22T06:30:09.995Z,11.15
2023-03-22T06:32:53.578Z,10.57
2023-03-22T06:35:21.061Z,13.75
2023-03-22T06:37:48.436Z,13.30
2023-03-22T06:40:15.901Z,13.27
2023-03-22T06:42:43.404Z,15.55
2023-03-22T06:45:16.390Z,12.40
2023-03-22T06:47:45.667Z,12.20
2023-03-22T06:50:44.257Z,10.40
2023-03-22T06:53:35.234Z,14.77
2023-03-22T06:56:04.048Z,12.63
2023-03-22T06:58:36.961Z,9.07
2023-03-22T07:01:04.404Z,7.15
2023-03-22T07:03:33.035Z,9.20
2023-03-22T07:06:07.333Z,11.60
2023-03-22T07:08:37.670Z,10.45
2023-03-22T07:11:06.758Z,9.80
2023-03-22T07:13:35.053Z,10.77
2023-03-22T07:16:08.906Z,11.20
2023-03-22T07:18:40.863Z,9.40
2023-03-22T07:21:08.600Z,8.70
2023-03-22T07:23:39.461Z,9.90
2023-03-22T07:26:13.362Z,11.30
2023-03-22T07:28:44.655Z,12.07
2023-03-22T07:31:14.162Z,12.15
2023-03-22T07:33:52.208Z,13.50
2023-03-22T07:36:25.747Z,11.57
2023-03-22T07:38:54.553Z,11.32
2023-03-22T07:41:30.163Z,10.60
2023-03-22T07:44:29.832Z,7.80
2023-03-22T07:47:40.417Z,8.95
2023-03-22T07:50:26.825Z,9.68
2023-03-22T07:52:56.948Z,8.50
2023-03-22T07:55:24.207Z,6.97
2023-03-22T07:57:51.787Z,9.15
2023-03-22T08:00:19.500Z,11.40
2023-03-22T08:02:56.985Z,10.18
2023-03-22T08:05:42.012Z,10.43
2023-03-22T08:08:13.637Z,7.30
2023-03-22T08:10:41.584Z,11.05
2023-03-22T08:13:09.163Z,12.07
2023-03-22T08:15:38.417Z,11.23
2023-03-22T08:18:08.710Z,7.68
2023-03-22T08:20:40.106Z,11.30
2023-03-22T08:23:16.086Z,9.55
2023-03-22T08:26:18.791Z,10.40
2023-03-22T08:28:46.539Z,11.02
2023-03-22T08:31:16.096Z,11.13
2023-03-22T08:33:45.706Z,10.82
2023-03-22T08:36:16.709Z,11.25
2023-03-22T08:38:50.292Z,13.32
2023-03-22T08:41:19.603Z,13.27
2023-03-22T08:43:47.083Z,12.90
2023-03-22T08:46:14.628Z,8.57
2023-03-22T08:48:42.321Z,11.55
2023-03-22T08:51:19.373Z,10.63
2023-03-22T08:54:13.647Z,13.23
2023-03-22T08:56:52.813Z,10.30
2023-03-22T08:59:40.515Z,10.90
2023-03-22T09:02:23.082Z,13.13
2023-03-22T09:04:50.892Z,10.70
2023-03-22T09:07:20.323Z,11.10
2023-03-22T09:09:56.040Z,8.80
2023-03-22T09:12:25.245Z,12.32
2023-03-22T09:14:53.849Z,12.45
2023-03-22T09:17:22.590Z,11.98
2023-03-22T09:19:57.702Z,10.73
2023-03-22T09:22:32.828Z,9.75
2023-03-22T09:25:01.891Z,12.48
2023-03-22T09:27:29.778Z,12.73
2023-03-22T09:29:57.327Z,11.40
2023-03-22T09:32:24.585Z,11.10
2023-03-22T09:34:58.404Z,8.85
2023-03-22T09:37:37.627Z,11.25
2023-03-22T09:40:07.642Z,10.25
2023-03-22T09:42:40.937Z,11.93
2023-03-22T09:45:20.588Z,11.23
2023-03-22T09:47:51.518Z,11.15
2023-03-22T09:50:18.797Z,10.88
2023-03-22T09:52:46.486Z,13.02
2023-03-22T09:55:23.222Z,12.88
2023-03-22T09:58:05.884Z,10.35
2023-03-22T10:00:42.971Z,11.23
2023-03-22T10:03:10.840Z,8.93
2023-03-22T10:06:05.075Z,8.38
2023-03-22T10:08:53.222Z,10.25
2023-03-22T10:11:27.860Z,10.18
2023-03-22T10:14:05.958Z,9.15
2023-03-22T10:16:35.723Z,8.10
2023-03-22T10:19:17.535Z,11.55
2023-03-22T10:21:47.402Z,13.18
2023-03-22T10:24:19.044Z,12.25
2023-03-22T10:26:47.923Z,11.00
2023-03-22T10:29:29.274Z,11.50
2023-03-22T10:31:57.163Z,9.68
2023-03-22T10:34:31.212Z,13.00
2023-03-22T10:37:00.965Z,8.77
2023-03-22T10:39:31.321Z,8.23
2023-03-22T10:42:02.172Z,9.25
2023-03-22T10:44:34.693Z,11.68
2023-03-22T10:47:07.918Z,12.88
2023-03-22T10:49:44.933Z,11.82
2023-03-22T10:52:19.227Z,10.32
2023-03-22T10:54:46.818Z,8.93
2023-03-22T10:57:14.090Z,10.73
2023-03-22T10:59:52.281Z,11.63
2023-03-22T11:02:22.867Z,9.35
2023-03-22T11:04:51.861Z,7.40
2023-03-22T11:07:29.735Z,11.73
2023-03-22T11:10:09.339Z,9.95
2023-03-22T11:12:42.051Z,11.00
2023-03-22T11:15:35.800Z,8.43
2023-03-22T11:18:08.385Z,8.88
2023-03-22T11:20:36.040Z,14.93
2023-03-22T11:23:09.698Z,10.48
2023-03-22T11:25:43.837Z,9.07
2023-03-22T11:28:19.204Z,7.05
2023-03-22T11:31:13.046Z,10.10
2023-03-22T11:33:55.881Z,7.68
2023-03-22T11:36:23.333Z,8.90
2023-03-22T11:38:57.214Z,9.98
2023-03-22T11:41:26.618Z,11.05
2023-03-22T11:43:58.027Z,10.43
2023-03-22T11:46:25.790Z,11.70
2023-03-22T11:48:59.513Z,9.35
2023-03-22T11:51:35.127Z,6.75
2023-03-22T11:54:08.530Z,7.95
2023-03-22T11:56:40.608Z,7.55
2023-03-22T11:59:09.644Z,7.40
2023-03-22T12:01:59.161Z,8.50
2023-03-22T12:04:34.857Z,9.13
2023-03-22T12:09:44.167Z,9.88
2023-03-22T12:12:16.041Z,9.00
2023-03-22T12:14:49.566Z,9.27
2023-03-22T12:17:43.155Z,10.52
2023-03-22T12:20:44.120Z,8.80
2023-03-22T12:23:14.514Z,11.45
2023-03-22T12:25:46.335Z,8.80
2023-03-22T12:28:16.497Z,8.82
2023-03-22T12:30:49.114Z,9.43
2023-03-22T12:33:19.987Z,10.25
2023-03-22T12:35:48.000Z,8.35
2023-03-22T12:38:41.609Z,8.50
2023-03-22T12:41:14.940Z,8.18
2023-03-22T12:43:42.203Z,10.45
2023-03-22T12:46:15.828Z,10.73
2023-03-22T12:49:01.493Z,10.35
2023-03-22T12:51:28.893Z,9.85
2023-03-22T12:53:57.490Z,9.23
2023-03-22T12:56:32.715Z,8.70
2023-03-22T12:59:03.635Z,8.90
2023-03-22T13:01:51.350Z,9.65
2023-03-22T13:04:31.767Z,8.60
2023-03-22T13:07:09.434Z,11.68
2023-03-22T13:09:42.845Z,9.95
2023-03-22T13:12:16.384Z,10.60
2023-03-22T13:14:50.038Z,10.02
2023-03-22T13:17:23.213Z,8.90
2023-03-22T13:20:13.599Z,10.13
2023-03-22T13:22:41.716Z,8.48
2023-03-22T13:25:17.191Z,9.95
2023-03-22T13:27:57.438Z,9.95
2023-03-22T13:30:36.381Z,8.90
2023-03-22T13:33:09.692Z,9.02
2023-03-22T13:35:37.171Z,10.50
2023-03-22T13:38:09.665Z,7.35
2023-03-22T13:40:44.127Z,9.63
2023-03-22T13:43:14.415Z,9.00
2023-03-22T13:46:01.030Z,7.07
2023-03-22T13:48:33.575Z,8.85
2023-03-22T13:51:09.850Z,10.27
2023-03-22T13:53:37.579Z,10.48
2023-03-22T13:56:07.344Z,9.52
2023-03-22T13:58:37.753Z,9.25
2023-03-22T14:01:16.429Z,13.15
2023-03-22T14:03:45.644Z,10.02
2023-03-22T14:08:42.474Z,9.98
2023-03-22T14:11:12.918Z,8.20
2023-03-22T14:13:44.996Z,8.50
2023-03-22T14:16:41.532Z,8.73
2023-03-22T14:19:09.935Z,10.52
2023-03-22T14:21:44.006Z,9.75
